Map

Track Data

SID SEASON NUMBER BASIN SUBBASIN NAME ISO_TIME NATURE LAT LON WMO_WIND WMO_PRES WMO_AGENCY TRACK_TYPE DIST2LAND LANDFALL IFLAG USA_AGENCY USA_ATCF_ID USA_LAT USA_LON USA_RECORD USA_STATUS USA_WIND USA_PRES USA_SSHS USA_R34_NE USA_R34_SE USA_R34_SW USA_R34_NW USA_R50_NE USA_R50_SE USA_R50_SW USA_R50_NW USA_R64_NE USA_R64_SE USA_R64_SW USA_R64_NW USA_POCI USA_ROCI USA_RMW USA_EYE TOKYO_LAT TOKYO_LON TOKYO_GRADE TOKYO_WIND TOKYO_PRES TOKYO_R50_DIR TOKYO_R50_LONG TOKYO_R50_SHORT TOKYO_R30_DIR TOKYO_R30_LONG TOKYO_R30_SHORT TOKYO_LAND CMA_LAT CMA_LON CMA_CAT CMA_WIND CMA_PRES HKO_LAT HKO_LON HKO_CAT HKO_WIND HKO_PRES NEWDELHI_LAT NEWDELHI_LON NEWDELHI_GRADE NEWDELHI_WIND NEWDELHI_PRES NEWDELHI_CI NEWDELHI_DP NEWDELHI_POCI REUNION_LAT REUNION_LON REUNION_TYPE REUNION_WIND REUNION_PRES REUNION_TNUM REUNION_CI REUNION_RMW REUNION_R34_NE REUNION_R34_SE REUNION_R34_SW REUNION_R34_NW REUNION_R50_NE REUNION_R50_SE REUNION_R50_SW REUNION_R50_NW REUNION_R64_NE REUNION_R64_SE REUNION_R64_SW REUNION_R64_NW BOM_LAT BOM_LON BOM_TYPE BOM_WIND BOM_PRES BOM_TNUM BOM_CI BOM_RMW BOM_R34_NE BOM_R34_SE BOM_R34_SW BOM_R34_NW BOM_R50_NE BOM_R50_SE BOM_R50_SW BOM_R50_NW BOM_R64_NE BOM_R64_SE BOM_R64_SW BOM_R64_NW BOM_ROCI BOM_POCI BOM_EYE BOM_POS_METHOD BOM_PRES_METHOD NADI_LAT NADI_LON NADI_CAT NADI_WIND NADI_PRES WELLINGTON_LAT WELLINGTON_LON WELLINGTON_WIND WELLINGTON_PRES DS824_LAT DS824_LON DS824_STAGE DS824_WIND DS824_PRES TD9636_LAT TD9636_LON TD9636_STAGE TD9636_WIND TD9636_PRES TD9635_LAT TD9635_LON TD9635_WIND TD9635_PRES TD9635_ROCI NEUMANN_LAT NEUMANN_LON NEUMANN_CLASS NEUMANN_WIND NEUMANN_PRES MLC_LAT MLC_LON MLC_CLASS MLC_WIND MLC_PRES USA_GUST BOM_GUST BOM_GUST_PER REUNION_GUST REUNION_GUST_PER USA_SEAHGT USA_SEARAD_NE USA_SEARAD_SE USA_SEARAD_SW USA_SEARAD_NW STORM_SPEED STORM_DIR
1902264N18126 1902 37 WP MM NOT_NAMED 1902-09-20 16:00:00 NR 17.9000 125.900 main 374 343 __________O___ -1 17.9000 125.900 7 10 276
1902264N18126 1902 37 WP MM NOT_NAMED 1902-09-20 18:00:00 NR 17.9317 125.563 main 343 296 __________P___ -1 17.9317 125.563 7 10 275
1902264N18126 1902 37 WP MM NOT_NAMED 1902-09-20 21:00:00 NR 17.9730 125.065 main 296 245 __________P___ -1 17.9730 125.065 7 9 274
1902264N18126 1902 37 WP MM NOT_NAMED 1902-09-21 00:00:00 NR 17.9999 124.587 main 245 193 __________P___ -1 17.9999 124.587 7 9 272
1902264N18126 1902 37 WP MM NOT_NAMED 1902-09-21 03:00:00 NR 18.0047 124.140 main 193 182 __________P___ -1 18.0047 124.140 7 8 270
1902264N18126 1902 37 WP MM NOT_NAMED 1902-09-21 04:00:00 NR 18.0000 124.000 main 182 151 __________O___ -1 18.0000 124.000 3 8 266
1902264N18126 1902 37 WP MM NOT_NAMED 1902-09-21 06:00:00 NR 17.9807 123.735 main 151 124 __________P___ -1 17.9807 123.735 3 7 264
1902264N18126 1902 37 WP MM NOT_NAMED 1902-09-21 09:00:00 NR 17.9330 123.363 main 124 86 __________P___ -1 17.9330 123.363 3 7 261
1902264N18126 1902 37 WP MM NOT_NAMED 1902-09-21 12:00:00 NR 17.8742 123.002 main 86 52 __________P___ -1 17.8742 123.002 3 7 261
1902264N18126 1902 37 WP MM NOT_NAMED 1902-09-21 15:00:00 NR 17.8167 122.630 main 52 42 __________P___ -1 17.8167 122.630 3 7 261
1902264N18126 1902 37 WP MM NOT_NAMED 1902-09-21 16:00:00 NR 17.8000 122.500 main 42 10 __________O___ -1 17.8000 122.500 4 8 265
1902264N18126 1902 37 WP MM NOT_NAMED 1902-09-21 18:00:00 NR 17.7802 122.215 main 10 0 __________P___ -1 17.7802 122.215 4 8 266
1902264N18126 1902 37 WP MM NOT_NAMED 1902-09-21 21:00:00 NR 17.7570 121.768 main 0 0 __________P___ -1 17.7570 121.768 4 9 267
1902264N18126 1902 37 WP MM NOT_NAMED 1902-09-22 00:00:00 NR 17.7358 121.309 main 0 0 __________P___ -1 17.7358 121.309 4 9 267
1902264N18126 1902 37 WP MM NOT_NAMED 1902-09-22 03:00:00 NR 17.7104 120.850 main 0 0 __________P___ -1 17.7104 120.850 4 9 266
1902264N18126 1902 37 WP MM NOT_NAMED 1902-09-22 04:00:00 NR 17.7000 120.700 main 0 0 __________O___ -1 17.7000 120.700 4 8 265
1902264N18126 1902 37 WP MM NOT_NAMED 1902-09-22 06:00:00 NR 17.6748 120.408 main 0 0 __________P___ -1 17.6748 120.408 4 8 264
1902264N18126 1902 37 WP MM NOT_NAMED 1902-09-22 09:00:00 NR 17.6309 119.977 main 31 31 __________P___ -1 17.6309 119.977 4 8 263
1902264N18126 1902 37 WP MM NOT_NAMED 1902-09-22 12:00:00 NR 17.5797 119.553 main 74 84 __________P___ -1 17.5797 119.553 4 8 262
1902264N18126 1902 37 WP MM NOT_NAMED 1902-09-22 15:00:00 NR 17.5211 119.137 main 127 127 __________P___ -1 17.5211 119.137 4 8 261
1902264N18126 1902 37 WP MM NOT_NAMED 1902-09-22 16:00:00 NR 17.5000 119.000 main 138 138 __________O___ -1 17.5000 119.000 4 8 260
1902264N18126 1902 37 WP MM NOT_NAMED 1902-09-22 18:00:00 NR 17.4578 118.749 main 170 169 __________P___ -1 17.4578 118.749 4 7 259
1902264N18126 1902 37 WP MM NOT_NAMED 1902-09-22 21:00:00 NR 17.3884 118.379 main 193 193 __________P___ -1 17.3884 118.379 4 7 259
1902264N18126 1902 37 WP MM NOT_NAMED 1902-09-23 00:00:00 NR 17.3122 117.991 main 221 221 __________P___ -1 17.3122 117.991 4 8 258
1902264N18126 1902 37 WP MM NOT_NAMED 1902-09-23 03:00:00 NR 17.2292 117.559 main 255 264 __________P___ -1 17.2292 117.559 4 9 259
1902264N18126 1902 37 WP MM NOT_NAMED 1902-09-23 04:00:00 NR 17.2000 117.400 main 274 274 __________O___ -1 17.2000 117.400 4 10 260
1902264N18126 1902 37 WP MM NOT_NAMED 1902-09-23 06:00:00 NR 17.1419 117.040 main 311 311 __________P___ -1 17.1419 117.040 4 11 261
1902264N18126 1902 37 WP MM NOT_NAMED 1902-09-23 09:00:00 NR 17.0484 116.450 main 359 369 __________P___ -1 17.0484 116.450 4 12 260
1902264N18126 1902 37 WP MM NOT_NAMED 1902-09-23 12:00:00 NR 16.9470 115.828 main 428 428 __________P___ -1 16.9470 115.828 4 12 260
1902264N18126 1902 37 WP MM NOT_NAMED 1902-09-23 15:00:00 NR 16.8380 115.203 main 488 488 __________P___ -1 16.8380 115.203 4 12 259
1902264N18126 1902 37 WP MM NOT_NAMED 1902-09-23 16:00:00 NR 16.8000 115.000 main 509 493 __________O___ -1 16.8000 115.000 4 11 258
1902264N18126 1902 37 WP MM NOT_NAMED 1902-09-23 18:00:00 NR 16.7242 114.638 main 493 453 __________P___ -1 16.7242 114.638 4 11 257
1902264N18126 1902 37 WP MM NOT_NAMED 1902-09-23 21:00:00 NR 16.6047 114.108 main 453 417 __________P___ -1 16.6047 114.108 4 11 257
1902264N18126 1902 37 WP MM NOT_NAMED 1902-09-24 00:00:00 NR 16.4786 113.570 main 417 377 __________P___ -1 16.4786 113.570 4 11 256
1902264N18126 1902 37 WP MM NOT_NAMED 1902-09-24 03:00:00 NR 16.3458 113.001 main 384 370 __________P___ -1 16.3458 113.001 4 11 256
1902264N18126 1902 37 WP MM NOT_NAMED 1902-09-24 04:00:00 NR 16.3000 112.800 main 370 351 __________O___ -1 16.3000 112.800 4 13 258
1902264N18126 1902 37 WP MM NOT_NAMED 1902-09-24 06:00:00 NR 16.2110 112.362 main 351 314 __________P___ -1 16.2110 112.362 4 13 258
1902264N18126 1902 37 WP MM NOT_NAMED 1902-09-24 09:00:00 NR 16.0714 111.668 main 314 238 __________P___ -1 16.0714 111.668 4 14 258
1902264N18126 1902 37 WP MM NOT_NAMED 1902-09-24 12:00:00 NR 15.9213 110.950 main 238 154 __________P___ -1 15.9213 110.950 4 14 257
1902264N18126 1902 37 WP MM NOT_NAMED 1902-09-24 15:00:00 NR 15.7579 110.234 main 154 130 __________P___ -1 15.7579 110.234 4 14 256
1902264N18126 1902 37 WP MM NOT_NAMED 1902-09-24 16:00:00 NR 15.7000 110.000 main 130 78 __________O___ -1 15.7000 110.000 4 14 255
1902264N18126 1902 37 WP MM NOT_NAMED 1902-09-24 18:00:00 NR 15.5787 109.543 main 78 15 __________P___ -1 15.5787 109.543 4 14 254
1902264N18126 1902 37 WP MM NOT_NAMED 1902-09-24 21:00:00 NR 15.3853 108.880 main 15 0 __________P___ -1 15.3853 108.880 4 13 252
1902264N18126 1902 37 WP MM NOT_NAMED 1902-09-25 00:00:00 NR 15.1815 108.238 main 0 0 __________P___ -1 15.1815 108.238 4 13 251
1902264N18126 1902 37 WP MM NOT_NAMED 1902-09-25 03:00:00 NR 14.9710 107.609 main 0 0 __________P___ -1 14.9710 107.609 4 13 251
1902264N18126 1902 37 WP MM NOT_NAMED 1902-09-25 04:00:00 NR 14.9000 107.400 main 0 __________O___ -1 14.9000 107.400 7 13 251

Digital Typhoon Data and Search

About IBTrACS Database

This database is a web-friendly format of International Best Track Archive for Climate Stewardship (IBTrACS), a global best track data archive curated by NOAA dating back to 1842.

Updated: 2021-10-19